sensor_id;sensor_type;location;lat;lon;timestamp;pressure;altitude;pressure_sealevel;temperature;humidity
13612;BME280;6877;51.436;6.774;2023-11-18T00:01:46;101940.09;;;2.13;100.00
13612;BME280;6877;51.436;6.774;2023-11-18T00:04:12;101941.03;;;2.15;100.00
13612;BME280;6877;51.436;6.774;2023-11-18T00:06:44;101932.56;;;2.19;100.00
13612;BME280;6877;51.436;6.774;2023-11-18T00:09:12;101933.44;;;2.20;100.00
13612;BME280;6877;51.436;6.774;2023-11-18T00:11:41;101935.22;;;2.21;100.00
13612;BME280;6877;51.436;6.774;2023-11-18T00:14:11;101939.59;;;2.23;100.00
13612;BME280;6877;51.436;6.774;2023-11-18T00:16:42;101939.66;;;2.25;100.00
13612;BME280;6877;51.436;6.774;2023-11-18T00:19:09;101935.47;;;2.28;100.00
13612;BME280;6877;51.436;6.774;2023-11-18T00:21:41;101932.00;;;2.28;100.00
13612;BME280;6877;51.436;6.774;2023-11-18T00:24:09;101935.41;;;2.27;100.00
13612;BME280;6877;51.436;6.774;2023-11-18T00:26:40;101932.81;;;2.27;100.00
13612;BME280;6877;51.436;6.774;2023-11-18T00:29:07;101935.41;;;2.27;100.00
13612;BME280;6877;51.436;6.774;2023-11-18T00:31:34;101931.03;;;2.24;100.00
13612;BME280;6877;51.436;6.774;2023-11-18T00:34:01;101927.50;;;2.22;100.00
13612;BME280;6877;51.436;6.774;2023-11-18T00:36:33;101923.22;;;2.23;100.00
13612;BME280;6877;51.436;6.774;2023-11-18T00:38:59;101912.78;;;2.20;100.00
13612;BME280;6877;51.436;6.774;2023-11-18T00:41:26;101931.81;;;2.22;100.00
13612;BME280;6877;51.436;6.774;2023-11-18T00:43:52;101930.16;;;2.24;100.00
13612;BME280;6877;51.436;6.774;2023-11-18T00:46:19;101923.31;;;2.26;100.00
13612;BME280;6877;51.436;6.774;2023-11-18T00:48:51;101920.69;;;2.24;100.00
13612;BME280;6877;51.436;6.774;2023-11-18T00:51:22;101925.06;;;2.27;100.00
13612;BME280;6877;51.436;6.774;2023-11-18T00:53:49;101926.00;;;2.29;100.00
13612;BME280;6877;51.436;6.774;2023-11-18T00:56:22;101921.06;;;2.35;100.00
13612;BME280;6877;51.436;6.774;2023-11-18T00:58:48;101913.50;;;2.41;100.00
13612;BME280;6877;51.436;6.774;2023-11-18T01:01:22;101913.72;;;2.47;100.00
13612;BME280;6877;51.436;6.774;2023-11-18T01:03:54;101910.34;;;2.50;100.00
13612;BME280;6877;51.436;6.774;2023-11-18T01:06:26;101908.75;;;2.53;100.00
13612;BME280;6877;51.436;6.774;2023-11-18T01:08:57;101906.19;;;2.55;100.00
13612;BME280;6877;51.436;6.774;2023-11-18T01:11:24;101909.72;;;2.57;100.00
13612;BME280;6877;51.436;6.774;2023-11-18T01:13:51;101910.59;;;2.58;100.00
13612;BME280;6877;51.436;6.774;2023-11-18T01:16:22;101902.91;;;2.59;100.00
13612;BME280;6877;51.436;6.774;2023-11-18T01:18:54;101917.47;;;2.57;100.00
13612;BME280;6877;51.436;6.774;2023-11-18T01:21:26;101922.63;;;2.55;100.00
13612;BME280;6877;51.436;6.774;2023-11-18T01:23:58;101916.53;;;2.55;100.00
13612;BME280;6877;51.436;6.774;2023-11-18T01:26:30;101924.25;;;2.53;100.00
13612;BME280;6877;51.436;6.774;2023-11-18T01:28:59;101937.00;;;2.49;100.00
13612;BME280;6877;51.436;6.774;2023-11-18T01:31:31;101947.31;;;2.47;100.00
13612;BME280;6877;51.436;6.774;2023-11-18T01:33:58;101948.91;;;2.44;100.00
13612;BME280;6877;51.436;6.774;2023-11-18T01:36:25;101953.00;;;2.37;100.00
13612;BME280;6877;51.436;6.774;2023-11-18T01:38:51;101951.94;;;2.32;100.00
13612;BME280;6877;51.436;6.774;2023-11-18T01:41:23;101946.53;;;2.24;100.00
13612;BME280;6877;51.436;6.774;2023-11-18T01:43:49;101944.94;;;2.28;100.00
13612;BME280;6877;51.436;6.774;2023-11-18T01:46:19;101956.06;;;2.27;100.00
13612;BME280;6877;51.436;6.774;2023-11-18T01:48:47;101949.91;;;2.23;100.00
13612;BME280;6877;51.436;6.774;2023-11-18T01:51:14;101943.78;;;2.20;100.00
13612;BME280;6877;51.436;6.774;2023-11-18T01:53:47;101941.91;;;2.16;100.00
13612;BME280;6877;51.436;6.774;2023-11-18T01:56:14;101943.41;;;2.09;100.00
13612;BME280;6877;51.436;6.774;2023-11-18T01:58:46;101942.53;;;2.08;100.00
13612;BME280;6877;51.436;6.774;2023-11-18T02:01:13;101942.31;;;2.02;100.00
13612;BME280;6877;51.436;6.774;2023-11-18T02:03:42;101942.13;;;1.98;100.00
13612;BME280;6877;51.436;6.774;2023-11-18T02:06:14;101945.47;;;1.95;100.00
13612;BME280;6877;51.436;6.774;2023-11-18T02:08:42;101947.31;;;1.98;100.00
13612;BME280;6877;51.436;6.774;2023-11-18T02:11:20;101950.06;;;2.02;100.00
13612;BME280;6877;51.436;6.774;2023-11-18T02:13:53;101945.13;;;2.08;100.00
13612;BME280;6877;51.436;6.774;2023-11-18T02:16:21;101943.56;;;2.14;100.00
13612;BME280;6877;51.436;6.774;2023-11-18T02:18:49;101945.47;;;2.19;100.00
13612;BME280;6877;51.436;6.774;2023-11-18T02:21:16;101934.41;;;2.23;100.00
13612;BME280;6877;51.436;6.774;2023-11-18T02:23:48;101932.88;;;2.28;100.00
13612;BME280;6877;51.436;6.774;2023-11-18T02:26:22;101933.00;;;2.31;100.00
13612;BME280;6877;51.436;6.774;2023-11-18T02:28:54;101918.38;;;2.32;100.00
13612;BME280;6877;51.436;6.774;2023-11-18T02:31:30;101915.13;;;2.38;100.00
13612;BME280;6877;51.436;6.774;2023-11-18T02:34:10;101922.09;;;2.40;100.00
13612;BME280;6877;51.436;6.774;2023-11-18T02:36:46;101923.84;;;2.41;100.00
13612;BME280;6877;51.436;6.774;2023-11-18T02:39:21;101916.19;;;2.44;100.00
13612;BME280;6877;51.436;6.774;2023-11-18T02:41:51;101925.69;;;2.45;100.00
13612;BME280;6877;51.436;6.774;2023-11-18T02:44:19;101921.41;;;2.46;100.00
13612;BME280;6877;51.436;6.774;2023-11-18T02:46:49;101919.66;;;2.45;100.00
13612;BME280;6877;51.436;6.774;2023-11-18T02:49:20;101917.13;;;2.46;100.00
13612;BME280;6877;51.436;6.774;2023-11-18T02:51:47;101923.97;;;2.46;100.00
13612;BME280;6877;51.436;6.774;2023-11-18T02:54:14;101929.25;;;2.49;100.00
13612;BME280;6877;51.436;6.774;2023-11-18T02:56:42;101929.22;;;2.47;100.00
13612;BME280;6877;51.436;6.774;2023-11-18T02:59:12;101937.00;;;2.49;100.00
13612;BME280;6877;51.436;6.774;2023-11-18T03:01:42;101933.63;;;2.50;100.00
13612;BME280;6877;51.436;6.774;2023-11-18T03:04:08;101928.44;;;2.50;100.00
13612;BME280;6877;51.436;6.774;2023-11-18T03:06:36;101919.81;;;2.49;100.00
13612;BME280;6877;51.436;6.774;2023-11-18T03:09:03;101910.28;;;2.48;100.00
13612;BME280;6877;51.436;6.774;2023-11-18T03:11:34;101913.81;;;2.50;100.00
13612;BME280;6877;51.436;6.774;2023-11-18T03:14:00;101907.78;;;2.50;100.00
13612;BME280;6877;51.436;6.774;2023-11-18T03:16:27;101912.88;;;2.48;100.00
13612;BME280;6877;51.436;6.774;2023-11-18T03:18:58;101900.78;;;2.47;100.00
13612;BME280;6877;51.436;6.774;2023-11-18T03:21:25;101903.38;;;2.47;100.00
13612;BME280;6877;51.436;6.774;2023-11-18T03:23:57;101896.47;;;2.46;100.00
13612;BME280;6877;51.436;6.774;2023-11-18T03:26:29;101889.53;;;2.45;100.00
13612;BME280;6877;51.436;6.774;2023-11-18T03:29:03;101887.78;;;2.44;100.00
13612;BME280;6877;51.436;6.774;2023-11-18T03:31:29;101877.53;;;2.47;100.00
13612;BME280;6877;51.436;6.774;2023-11-18T03:33:56;101879.25;;;2.47;100.00
13612;BME280;6877;51.436;6.774;2023-11-18T03:36:22;101886.03;;;2.43;100.00
13612;BME280;6877;51.436;6.774;2023-11-18T03:38:53;101886.81;;;2.41;100.00
13612;BME280;6877;51.436;6.774;2023-11-18T03:41:20;101884.16;;;2.39;100.00
13612;BME280;6877;51.436;6.774;2023-11-18T03:43:49;101882.41;;;2.38;100.00
13612;BME280;6877;51.436;6.774;2023-11-18T03:46:16;101891.81;;;2.36;100.00
13612;BME280;6877;51.436;6.774;2023-11-18T03:48:48;101899.66;;;2.39;100.00
13612;BME280;6877;51.436;6.774;2023-11-18T03:51:14;101909.97;;;2.39;100.00
13612;BME280;6877;51.436;6.774;2023-11-18T03:53:49;101910.91;;;2.40;100.00
13612;BME280;6877;51.436;6.774;2023-11-18T03:56:18;101918.69;;;2.41;100.00
13612;BME280;6877;51.436;6.774;2023-11-18T03:58:45;101922.19;;;2.43;100.00
13612;BME280;6877;51.436;6.774;2023-11-18T04:01:25;101912.66;;;2.42;100.00
13612;BME280;6877;51.436;6.774;2023-11-18T04:03:58;101910.09;;;2.42;100.00
13612;BME280;6877;51.436;6.774;2023-11-18T04:06:27;101911.00;;;2.43;100.00
13612;BME280;6877;51.436;6.774;2023-11-18T04:08:59;101914.38;;;2.42;100.00
13612;BME280;6877;51.436;6.774;2023-11-18T04:11:25;101911.69;;;2.39;100.00
13612;BME280;6877;51.436;6.774;2023-11-18T04:13:52;101902.09;;;2.35;100.00
13612;BME280;6877;51.436;6.774;2023-11-18T04:16:19;101905.53;;;2.34;100.00
13612;BME280;6877;51.436;6.774;2023-11-18T04:18:53;101901.13;;;2.31;100.00
13612;BME280;6877;51.436;6.774;2023-11-18T04:21:20;101889.94;;;2.32;100.00
13612;BME280;6877;51.436;6.774;2023-11-18T04:23:46;101887.47;;;2.35;100.00
13612;BME280;6877;51.436;6.774;2023-11-18T04:26:13;101879.69;;;2.34;100.00
13612;BME280;6877;51.436;6.774;2023-11-18T04:28:44;101871.84;;;2.30;100.00
13612;BME280;6877;51.436;6.774;2023-11-18T04:31:11;101877.03;;;2.32;100.00
13612;BME280;6877;51.436;6.774;2023-11-18T04:33:37;101865.94;;;2.35;100.00
13612;BME280;6877;51.436;6.774;2023-11-18T04:36:07;101852.81;;;2.28;100.00
13612;BME280;6877;51.436;6.774;2023-11-18T04:38:36;101851.06;;;2.27;100.00
13612;BME280;6877;51.436;6.774;2023-11-18T04:41:02;101839.03;;;2.28;100.00
13612;BME280;6877;51.436;6.774;2023-11-18T04:43:34;101832.91;;;2.26;100.00
13612;BME280;6877;51.436;6.774;2023-11-18T04:46:01;101833.84;;;2.28;100.00
13612;BME280;6877;51.436;6.774;2023-11-18T04:48:28;101826.91;;;2.27;100.00
13612;BME280;6877;51.436;6.774;2023-11-18T04:50:54;101820.94;;;2.28;100.00
13612;BME280;6877;51.436;6.774;2023-11-18T04:53:21;101827.00;;;2.30;100.00
13612;BME280;6877;51.436;6.774;2023-11-18T04:55:52;101828.91;;;2.34;100.00
13612;BME280;6877;51.436;6.774;2023-11-18T04:58:19;101817.72;;;2.35;100.00
13612;BME280;6877;51.436;6.774;2023-11-18T05:00:45;101809.00;;;2.31;100.00
13612;BME280;6877;51.436;6.774;2023-11-18T05:03:12;101813.41;;;2.34;100.00
13612;BME280;6877;51.436;6.774;2023-11-18T05:05:39;101811.69;;;2.35;100.00
13612;BME280;6877;51.436;6.774;2023-11-18T05:08:19;101804.81;;;2.35;100.00
13612;BME280;6877;51.436;6.774;2023-11-18T05:10:49;101797.06;;;2.35;100.00
13612;BME280;6877;51.436;6.774;2023-11-18T05:13:21;101792.81;;;2.37;100.00
13612;BME280;6877;51.436;6.774;2023-11-18T05:15:54;101790.28;;;2.39;100.00
13612;BME280;6877;51.436;6.774;2023-11-18T05:18:20;101779.06;;;2.38;100.00
13612;BME280;6877;51.436;6.774;2023-11-18T05:20:52;101781.72;;;2.40;100.00
13612;BME280;6877;51.436;6.774;2023-11-18T05:23:25;101781.75;;;2.41;100.00
13612;BME280;6877;51.436;6.774;2023-11-18T05:25:52;101780.00;;;2.40;100.00
13612;BME280;6877;51.436;6.774;2023-11-18T05:28:23;101780.09;;;2.43;100.00
13612;BME280;6877;51.436;6.774;2023-11-18T05:30:55;101775.94;;;2.48;100.00
13612;BME280;6877;51.436;6.774;2023-11-18T05:33:29;101779.56;;;2.53;100.00
13612;BME280;6877;51.436;6.774;2023-11-18T05:35:56;101777.16;;;2.60;100.00
13612;BME280;6877;51.436;6.774;2023-11-18T05:38:22;101779.84;;;2.63;100.00
13612;BME280;6877;51.436;6.774;2023-11-18T05:40:50;101786.00;;;2.68;100.00
13612;BME280;6877;51.436;6.774;2023-11-18T05:43:29;101786.94;;;2.70;100.00
13612;BME280;6877;51.436;6.774;2023-11-18T05:46:06;101790.34;;;2.69;100.00
13612;BME280;6877;51.436;6.774;2023-11-18T05:48:52;101796.44;;;2.71;100.00
13612;BME280;6877;51.436;6.774;2023-11-18T05:51:27;101790.47;;;2.72;100.00
13612;BME280;6877;51.436;6.774;2023-11-18T05:53:55;101787.13;;;2.76;100.00
13612;BME280;6877;51.436;6.774;2023-11-18T05:56:21;101781.94;;;2.76;100.00
13612;BME280;6877;51.436;6.774;2023-11-18T05:58:53;101775.16;;;2.79;100.00
13612;BME280;6877;51.436;6.774;2023-11-18T06:01:25;101776.97;;;2.82;100.00
13612;BME280;6877;51.436;6.774;2023-11-18T06:03:59;101769.25;;;2.84;100.00
13612;BME280;6877;51.436;6.774;2023-11-18T06:06:26;101762.38;;;2.84;100.00
13612;BME280;6877;51.436;6.774;2023-11-18T06:08:58;101768.53;;;2.88;100.00
13612;BME280;6877;51.436;6.774;2023-11-18T06:11:35;101765.09;;;2.89;100.00
13612;BME280;6877;51.436;6.774;2023-11-18T06:14:12;101762.59;;;2.92;100.00
13612;BME280;6877;51.436;6.774;2023-11-18T06:16:38;101753.13;;;2.92;100.00
13612;BME280;6877;51.436;6.774;2023-11-18T06:19:13;101742.06;;;2.96;100.00
13612;BME280;6877;51.436;6.774;2023-11-18T06:21:40;101741.16;;;2.96;100.00
13612;BME280;6877;51.436;6.774;2023-11-18T06:24:12;101736.91;;;2.98;100.00
13612;BME280;6877;51.436;6.774;2023-11-18T06:26:45;101753.38;;;3.01;100.00
13612;BME280;6877;51.436;6.774;2023-11-18T06:29:18;101744.75;;;3.01;100.00
13612;BME280;6877;51.436;6.774;2023-11-18T06:31:44;101751.81;;;3.07;100.00
13612;BME280;6877;51.436;6.774;2023-11-18T06:34:11;101755.31;;;3.09;100.00
13612;BME280;6877;51.436;6.774;2023-11-18T06:36:39;101750.22;;;3.12;100.00
13612;BME280;6877;51.436;6.774;2023-11-18T06:39:05;101743.47;;;3.17;100.00
13612;BME280;6877;51.436;6.774;2023-11-18T06:41:33;101743.56;;;3.20;100.00
13612;BME280;6877;51.436;6.774;2023-11-18T06:44:05;101739.22;;;3.19;100.00
13612;BME280;6877;51.436;6.774;2023-11-18T06:46:44;101737.47;;;3.18;100.00
13612;BME280;6877;51.436;6.774;2023-11-18T06:49:15;101744.44;;;3.20;100.00
13612;BME280;6877;51.436;6.774;2023-11-18T06:51:43;101741.91;;;3.22;100.00
13612;BME280;6877;51.436;6.774;2023-11-18T06:54:09;101748.06;;;3.27;100.00
13612;BME280;6877;51.436;6.774;2023-11-18T06:56:42;101763.66;;;3.30;100.00
13612;BME280;6877;51.436;6.774;2023-11-18T06:59:10;101768.06;;;3.33;100.00
13612;BME280;6877;51.436;6.774;2023-11-18T07:01:39;101759.59;;;3.38;100.00
13612;BME280;6877;51.436;6.774;2023-11-18T07:04:07;101763.97;;;3.41;100.00
13612;BME280;6877;51.436;6.774;2023-11-18T07:06:35;101762.28;;;3.43;100.00
13612;BME280;6877;51.436;6.774;2023-11-18T07:09:09;101771.06;;;3.48;100.00
13612;BME280;6877;51.436;6.774;2023-11-18T07:11:40;101773.69;;;3.49;100.00
13612;BME280;6877;51.436;6.774;2023-11-18T07:14:10;101772.94;;;3.54;100.00
13612;BME280;6877;51.436;6.774;2023-11-18T07:16:42;101771.38;;;3.60;100.00
13612;BME280;6877;51.436;6.774;2023-11-18T07:19:10;101769.69;;;3.62;100.00
13612;BME280;6877;51.436;6.774;2023-11-18T07:21:43;101762.00;;;3.64;100.00
13612;BME280;6877;51.436;6.774;2023-11-18T07:24:10;101765.59;;;3.69;100.00
13612;BME280;6877;51.436;6.774;2023-11-18T07:26:36;101770.88;;;3.74;100.00
13612;BME280;6877;51.436;6.774;2023-11-18T07:29:03;101774.31;;;3.74;100.00
13612;BME280;6877;51.436;6.774;2023-11-18T07:31:34;101784.75;;;3.77;100.00
13612;BME280;6877;51.436;6.774;2023-11-18T07:34:07;101777.06;;;3.80;100.00
13612;BME280;6877;51.436;6.774;2023-11-18T07:36:38;101757.38;;;3.85;100.00
13612;BME280;6877;51.436;6.774;2023-11-18T07:39:10;101756.66;;;3.91;100.00
13612;BME280;6877;51.436;6.774;2023-11-18T07:41:42;101743.81;;;3.95;100.00
13612;BME280;6877;51.436;6.774;2023-11-18T07:44:08;101739.63;;;4.02;100.00
13612;BME280;6877;51.436;6.774;2023-11-18T07:46:39;101741.44;;;4.06;100.00
13612;BME280;6877;51.436;6.774;2023-11-18T07:49:13;101745.03;;;4.10;100.00
13612;BME280;6877;51.436;6.774;2023-11-18T07:51:42;101741.59;;;4.12;100.00
13612;BME280;6877;51.436;6.774;2023-11-18T07:54:09;101726.94;;;4.13;100.00
13612;BME280;6877;51.436;6.774;2023-11-18T07:56:41;101732.16;;;4.14;100.00
13612;BME280;6877;51.436;6.774;2023-11-18T07:59:18;101732.25;;;4.19;100.00
13612;BME280;6877;51.436;6.774;2023-11-18T08:01:50;101725.47;;;4.24;100.00
13612;BME280;6877;51.436;6.774;2023-11-18T08:04:21;101723.00;;;4.29;100.00
13612;BME280;6877;51.436;6.774;2023-11-18T08:06:53;101730.88;;;4.33;100.00
13612;BME280;6877;51.436;6.774;2023-11-18T08:09:24;101735.28;;;4.37;100.00
13612;BME280;6877;51.436;6.774;2023-11-18T08:11:57;101744.88;;;4.41;100.00
13612;BME280;6877;51.436;6.774;2023-11-18T08:14:28;101740.66;;;4.47;100.00
13612;BME280;6877;51.436;6.774;2023-11-18T08:16:55;101750.25;;;4.51;100.00
13612;BME280;6877;51.436;6.774;2023-11-18T08:19:23;101751.25;;;4.56;100.00
13612;BME280;6877;51.436;6.774;2023-11-18T08:21:54;101753.97;;;4.62;100.00
13612;BME280;6877;51.436;6.774;2023-11-18T08:24:21;101749.78;;;4.67;100.00
13612;BME280;6877;51.436;6.774;2023-11-18T08:26:48;101742.06;;;4.70;100.00
13612;BME280;6877;51.436;6.774;2023-11-18T08:29:19;101746.41;;;4.73;100.00
13612;BME280;6877;51.436;6.774;2023-11-18T08:31:46;101743.00;;;4.75;100.00
13612;BME280;6877;51.436;6.774;2023-11-18T08:34:12;101740.47;;;4.77;100.00
13612;BME280;6877;51.436;6.774;2023-11-18T08:36:40;101756.91;;;4.79;100.00
13612;BME280;6877;51.436;6.774;2023-11-18T08:39:11;101750.91;;;4.81;100.00
13612;BME280;6877;51.436;6.774;2023-11-18T08:41:45;101744.19;;;4.90;100.00
13612;BME280;6877;51.436;6.774;2023-11-18T08:44:12;101744.22;;;4.91;100.00
13612;BME280;6877;51.436;6.774;2023-11-18T08:46:44;101742.53;;;4.93;100.00
13612;BME280;6877;51.436;6.774;2023-11-18T08:49:15;101743.44;;;4.95;100.00
13612;BME280;6877;51.436;6.774;2023-11-18T08:51:42;101742.59;;;4.98;100.00
13612;BME280;6877;51.436;6.774;2023-11-18T08:54:17;101744.44;;;5.02;100.00
13612;BME280;6877;51.436;6.774;2023-11-18T08:56:53;101739.31;;;5.05;100.00
13612;BME280;6877;51.436;6.774;2023-11-18T08:59:24;101722.97;;;5.10;100.00
13612;BME280;6877;51.436;6.774;2023-11-18T09:01:54;101712.66;;;5.14;100.00
13612;BME280;6877;51.436;6.774;2023-11-18T09:04:25;101717.88;;;5.15;100.00
13612;BME280;6877;51.436;6.774;2023-11-18T09:06:57;101718.81;;;5.17;100.00
13612;BME280;6877;51.436;6.774;2023-11-18T09:09:26;101716.16;;;5.16;100.00
13612;BME280;6877;51.436;6.774;2023-11-18T09:11:58;101707.56;;;5.18;100.00
13612;BME280;6877;51.436;6.774;2023-11-18T09:14:25;101694.59;;;5.18;100.00
13612;BME280;6877;51.436;6.774;2023-11-18T09:16:52;101691.19;;;5.22;100.00
13612;BME280;6877;51.436;6.774;2023-11-18T09:19:27;101681.69;;;5.23;100.00
13612;BME280;6877;51.436;6.774;2023-11-18T09:21:53;101680.91;;;5.27;100.00
13612;BME280;6877;51.436;6.774;2023-11-18T09:24:21;101673.25;;;5.34;100.00
13612;BME280;6877;51.436;6.774;2023-11-18T09:26:51;101674.28;;;5.43;100.00
13612;BME280;6877;51.436;6.774;2023-11-18T09:29:17;101676.97;;;5.49;100.00
13612;BME280;6877;51.436;6.774;2023-11-18T09:31:49;101664.97;;;5.55;100.00
13612;BME280;6877;51.436;6.774;2023-11-18T09:34:21;101673.72;;;5.62;100.00
13612;BME280;6877;51.436;6.774;2023-11-18T09:36:54;101669.47;;;5.67;100.00
13612;BME280;6877;51.436;6.774;2023-11-18T09:39:25;101666.97;;;5.73;100.00
13612;BME280;6877;51.436;6.774;2023-11-18T09:42:00;101678.31;;;5.78;100.00
13612;BME280;6877;51.436;6.774;2023-11-18T09:44:36;101661.88;;;5.79;100.00
13612;BME280;6877;51.436;6.774;2023-11-18T09:47:11;101680.97;;;5.81;100.00
13612;BME280;6877;51.436;6.774;2023-11-18T09:49:49;101679.28;;;5.84;100.00
13612;BME280;6877;51.436;6.774;2023-11-18T09:52:21;101679.28;;;5.84;100.00
13612;BME280;6877;51.436;6.774;2023-11-18T09:55:02;101672.31;;;5.82;100.00
13612;BME280;6877;51.436;6.774;2023-11-18T09:58:03;101668.84;;;5.82;100.00
13612;BME280;6877;51.436;6.774;2023-11-18T10:00:37;101663.69;;;5.84;100.00
13612;BME280;6877;51.436;6.774;2023-11-18T10:03:06;101658.59;;;5.91;100.00
13612;BME280;6877;51.436;6.774;2023-11-18T10:05:40;101660.50;;;6.00;100.00
13612;BME280;6877;51.436;6.774;2023-11-18T10:08:06;101655.50;;;6.12;100.00
13612;BME280;6877;51.436;6.774;2023-11-18T10:10:38;101646.97;;;6.24;100.00
13612;BME280;6877;51.436;6.774;2023-11-18T10:13:09;101642.78;;;6.34;100.00
13612;BME280;6877;51.436;6.774;2023-11-18T10:15:52;101629.88;;;6.43;100.00
13612;BME280;6877;51.436;6.774;2023-11-18T10:18:21;101625.59;;;6.45;100.00
13612;BME280;6877;51.436;6.774;2023-11-18T10:20:51;101606.44;;;6.40;100.00
13612;BME280;6877;51.436;6.774;2023-11-18T10:23:19;101609.91;;;6.39;100.00
13612;BME280;6877;51.436;6.774;2023-11-18T10:25:54;101601.28;;;6.43;100.00
13612;BME280;6877;51.436;6.774;2023-11-18T10:28:27;101589.28;;;6.53;100.00
13612;BME280;6877;51.436;6.774;2023-11-18T10:30:58;101585.00;;;6.58;100.00
13612;BME280;6877;51.436;6.774;2023-11-18T10:33:26;101577.25;;;6.62;100.00
13612;BME280;6877;51.436;6.774;2023-11-18T10:35:57;101578.13;;;6.63;100.00
13612;BME280;6877;51.436;6.774;2023-11-18T10:38:24;101575.56;;;6.67;100.00
13612;BME280;6877;51.436;6.774;2023-11-18T10:40:57;101573.84;;;6.69;100.00
13612;BME280;6877;51.436;6.774;2023-11-18T10:43:24;101576.47;;;6.69;100.00
13612;BME280;6877;51.436;6.774;2023-11-18T10:46:10;101572.97;;;6.66;100.00
13612;BME280;6877;51.436;6.774;2023-11-18T10:48:44;101559.09;;;6.65;100.00
13612;BME280;6877;51.436;6.774;2023-11-18T10:51:17;101555.59;;;6.63;100.00
13612;BME280;6877;51.436;6.774;2023-11-18T10:53:50;101553.88;;;6.65;100.00
13612;BME280;6877;51.436;6.774;2023-11-18T10:56:30;101547.75;;;6.60;100.00
13612;BME280;6877;51.436;6.774;2023-11-18T10:58:57;101541.66;;;6.58;100.00
13612;BME280;6877;51.436;6.774;2023-11-18T11:01:33;101535.59;;;6.56;100.00
13612;BME280;6877;51.436;6.774;2023-11-18T11:04:00;101539.00;;;6.55;100.00
13612;BME280;6877;51.436;6.774;2023-11-18T11:06:32;101525.19;;;6.56;100.00
13612;BME280;6877;51.436;6.774;2023-11-18T11:08:59;101521.72;;;6.59;100.00
13612;BME280;6877;51.436;6.774;2023-11-18T11:11:30;101515.69;;;6.60;100.00
13612;BME280;6877;51.436;6.774;2023-11-18T11:14:01;101520.00;;;6.61;100.00
13612;BME280;6877;51.436;6.774;2023-11-18T11:16:42;101526.09;;;6.63;100.00
13612;BME280;6877;51.436;6.774;2023-11-18T11:19:24;101530.47;;;6.65;100.00
13612;BME280;6877;51.436;6.774;2023-11-18T11:22:00;101533.00;;;6.61;100.00
13612;BME280;6877;51.436;6.774;2023-11-18T11:24:48;101537.28;;;6.56;100.00
13612;BME280;6877;51.436;6.774;2023-11-18T11:27:33;101537.22;;;6.48;100.00
13612;BME280;6877;51.436;6.774;2023-11-18T11:30:11;101538.03;;;6.44;100.00
13612;BME280;6877;51.436;6.774;2023-11-18T11:32:53;101542.31;;;6.39;100.00
13612;BME280;6877;51.436;6.774;2023-11-18T11:35:33;101535.38;;;6.38;100.00
13612;BME280;6877;51.436;6.774;2023-11-18T11:38:03;101531.00;;;6.34;100.00
13612;BME280;6877;51.436;6.774;2023-11-18T11:40:37;101519.75;;;6.35;100.00
13612;BME280;6877;51.436;6.774;2023-11-18T11:43:10;101517.09;;;6.33;100.00
13612;BME280;6877;51.436;6.774;2023-11-18T11:45:52;101516.25;;;6.33;100.00
13612;BME280;6877;51.436;6.774;2023-11-18T11:48:22;101511.03;;;6.33;100.00
13612;BME280;6877;51.436;6.774;2023-11-18T11:51:19;101514.53;;;6.36;100.00
13612;BME280;6877;51.436;6.774;2023-11-18T11:54:00;101512.84;;;6.40;100.00
13612;BME280;6877;51.436;6.774;2023-11-18T11:56:49;101513.75;;;6.40;100.00
13612;BME280;6877;51.436;6.774;2023-11-18T12:02:15;101528.44;;;6.38;100.00
13612;BME280;6877;51.436;6.774;2023-11-18T12:04:50;101527.56;;;6.39;100.00
13612;BME280;6877;51.436;6.774;2023-11-18T12:07:26;101513.69;;;6.36;100.00
13612;BME280;6877;51.436;6.774;2023-11-18T12:10:01;101498.03;;;6.33;100.00
13612;BME280;6877;51.436;6.774;2023-11-18T12:12:37;101480.69;;;6.29;100.00
13612;BME280;6877;51.436;6.774;2023-11-18T12:15:08;101476.31;;;6.26;100.00
13612;BME280;6877;51.436;6.774;2023-11-18T12:20:41;101451.09;;;6.17;100.00
13612;BME280;6877;51.436;6.774;2023-11-18T12:23:08;101443.28;;;6.17;100.00
13612;BME280;6877;51.436;6.774;2023-11-18T12:25:46;101438.09;;;6.17;100.00
13612;BME280;6877;51.436;6.774;2023-11-18T12:28:16;101429.47;;;6.18;100.00
13612;BME280;6877;51.436;6.774;2023-11-18T12:30:48;101414.66;;;6.14;100.00
13612;BME280;6877;51.436;6.774;2023-11-18T12:42:01;101404.19;;;6.05;100.00
13612;BME280;6877;51.436;6.774;2023-11-18T12:44:37;101405.03;;;6.02;100.00
13612;BME280;6877;51.436;6.774;2023-11-18T12:47:06;101392.06;;;6.04;100.00
13612;BME280;6877;51.436;6.774;2023-11-18T12:49:45;101391.19;;;6.05;100.00
13612;BME280;6877;51.436;6.774;2023-11-18T12:52:21;101374.72;;;6.04;100.00
13612;BME280;6877;51.436;6.774;2023-11-18T12:54:53;101367.81;;;6.05;100.00
13612;BME280;6877;51.436;6.774;2023-11-18T12:57:29;101354.84;;;6.08;100.00
13612;BME280;6877;51.436;6.774;2023-11-18T12:59:57;101327.13;;;6.07;100.00
13612;BME280;6877;51.436;6.774;2023-11-18T13:02:23;101319.34;;;6.10;100.00
13612;BME280;6877;51.436;6.774;2023-11-18T13:04:50;101320.28;;;6.15;100.00
13612;BME280;6877;51.436;6.774;2023-11-18T13:07:19;101322.00;;;6.16;100.00
13612;BME280;6877;51.436;6.774;2023-11-18T13:09:54;101316.84;;;6.19;100.00
13612;BME280;6877;51.436;6.774;2023-11-18T13:12:21;101309.94;;;6.21;100.00
13612;BME280;6877;51.436;6.774;2023-11-18T13:14:50;101299.53;;;6.18;100.00
13612;BME280;6877;51.436;6.774;2023-11-18T13:17:18;101277.88;;;6.19;100.00
13612;BME280;6877;51.436;6.774;2023-11-18T13:19:44;101268.38;;;6.24;100.00
13612;BME280;6877;51.436;6.774;2023-11-18T13:22:13;101247.63;;;6.28;100.00
13612;BME280;6877;51.436;6.774;2023-11-18T13:24:41;101233.78;;;6.32;100.00
13612;BME280;6877;51.436;6.774;2023-11-18T13:27:18;101230.28;;;6.30;100.00
13612;BME280;6877;51.436;6.774;2023-11-18T13:29:50;101231.16;;;6.29;100.00
13612;BME280;6877;51.436;6.774;2023-11-18T13:32:24;101220.72;;;6.27;100.00
13612;BME280;6877;51.436;6.774;2023-11-18T13:34:52;101227.66;;;6.26;100.00